Terminal Aerodrome Forecast
Issued by NWS Wilmington, OH

Current Version | Previous Version | Text Only | Print | Product List | Glossary Off
Versions: 1 2 3 4 5 6 7 8 9 10 11 12 13 14 15 16 17 18 19 20 21 22 23 24 25 26 27 28 29 30 31

000
FTUS41 KILN 281720
TAFDAY
TAF
KDAY 281720Z 2818/2918 14010KT 5SM -SHRA BR VCTS OVC060CB
      TEMPO 2818/2820 3SM TSRA BR
     FM282100 18008KT P6SM VCTS OVC050CB
      TEMPO 2821/2901 3SM TSRA BR
     FM290200 10004KT P6SM BKN035
     FM290400 VRB03KT 4SM BR BKN012
     FM290800 VRB03KT 1SM BR OVC004
      TEMPO 2908/2912 1/2SM FG
     FM291500 02005KT 4SM BR OVC012=

USA.gov is the U.S. government's official web portal to all federal, state and local government web resources and services.